New Cumberland, West Virginia
Current Conditions -  °F | °C
As of 7:51 AM on Monday 29 Dec 2014 (Local Time) from KPIT Reporting Station
Broken Clouds Broken Clouds  
Wind Chill: 29°   Ceiling: 3000
Heat Index: 29°   Visibility: 10mi
Dew Point: 24°   Wind: 0mph
Humidity: 82%   Direction: NA
Pressure: 30.19"   Gusts: NA
Location:  40.5°N, 80.61°W
Report Text: KPIT 291251Z 00000KT 10SM BKN030 BKN250 M02/M04 A3019 RMK AO2 SLP242 T10171044
Loading
Personal Weather Stations






























Interactive Weather Map New forecast layout! Learn more

10-Day Weather Forecast

Advertisements
Track Severe Weather on mobile